Time;durP1;ratioP1;P1;durP2;ratioP2;P2;SDS_P1;SDS_P2;PMS_P1;PMS_P2;Temp;Humidity;BMP_temperature;BMP_pressure;BME280_temperature;BME280_humidity;BME280_pressure;Samples;Min_cycle;Max_cycle;Signal;HPM_P1;HPM_P2
2021/12/10 00:00:50;;;;;;;17.73;3.20;;;;;;;;;;5113634;28;20230;-75
2021/12/10 00:03:20;;;;;;;22.27;3.63;;;;;;;;;;5113810;28;20251;-75
2021/12/10 00:05:48;;;;;;;21.33;3.87;;;;;;;;;;5112447;27;20766;-75
2021/12/10 00:08:16;;;;;;;26.47;3.67;;;;;;;;;;5114206;28;20292;-75
2021/12/10 00:10:46;;;;;;;15.20;2.90;;;;;;;;;;5118918;27;20567;-75
2021/12/10 00:13:15;;;;;;;18.93;3.57;;;;;;;;;;5114793;27;20204;-75
2021/12/10 00:15:43;;;;;;;19.77;3.37;;;;;;;;;;5112768;28;20319;-74
2021/12/10 00:18:13;;;;;;;17.00;2.77;;;;;;;;;;5113352;27;20230;-75
2021/12/10 00:20:41;;;;;;;16.77;3.10;;;;;;;;;;5112201;28;20228;-74
2021/12/10 00:23:09;;;;;;;19.67;3.10;;;;;;;;;;5121731;27;20227;-75
2021/12/10 00:25:39;;;;;;;18.63;3.00;;;;;;;;;;5113611;28;20255;-74
2021/12/10 00:28:14;;;;;;;17.13;3.50;;;;;;;;;;5112210;28;20672;-75
2021/12/10 00:30:56;;;;;;;20.43;3.37;;;;;;;;;;5113362;28;20195;-75
2021/12/10 00:33:25;;;;;;;20.70;3.00;;;;;;;;;;5113517;28;20208;-75
2021/12/10 00:35:53;;;;;;;18.13;2.77;;;;;;;;;;5118411;27;20258;-75
2021/12/10 00:38:20;;;;;;;26.50;4.00;;;;;;;;;;5112053;28;20282;-74
2021/12/10 00:40:47;;;;;;;18.83;3.53;;;;;;;;;;5112813;28;20756;-75
2021/12/10 00:43:14;;;;;;;14.90;3.00;;;;;;;;;;5112424;28;20645;-74
2021/12/10 00:45:43;;;;;;;21.33;3.90;;;;;;;;;;5112381;28;20305;-74
2021/12/10 00:48:10;;;;;;;19.37;2.73;;;;;;;;;;5111685;28;20289;-75
2021/12/10 00:50:41;;;;;;;19.63;3.37;;;;;;;;;;5112457;28;20247;-74
2021/12/10 00:53:08;;;;;;;19.80;3.10;;;;;;;;;;5112554;28;20293;-75
2021/12/10 00:55:35;;;;;;;23.37;4.00;;;;;;;;;;5113356;28;20289;-74
2021/12/10 00:58:03;;;;;;;22.27;3.60;;;;;;;;;;5112470;28;20292;-75
2021/12/10 01:00:35;;;;;;;17.27;3.27;;;;;;;;;;5114223;27;20221;-75
2021/12/10 01:03:04;;;;;;;19.60;3.10;;;;;;;;;;5112358;28;20189;-74
2021/12/10 01:05:32;;;;;;;17.63;2.90;;;;;;;;;;5113235;27;20311;-75
2021/12/10 01:07:59;;;;;;;15.70;2.20;;;;;;;;;;5114196;27;20294;-74
2021/12/10 01:10:29;;;;;;;10.90;2.37;;;;;;;;;;5111477;28;20203;-74
2021/12/10 01:12:58;;;;;;;13.23;2.10;;;;;;;;;;5116976;27;20284;-75
2021/12/10 01:23:53;;;;;;;12.07;2.83;;;;;;;;;;5112087;28;20574;-74
2021/12/10 01:26:37;;;;;;;15.03;2.70;;;;;;;;;;5111804;28;20227;-75
2021/12/10 01:29:04;;;;;;;15.57;2.90;;;;;;;;;;5110119;28;20198;-75
2021/12/10 01:31:31;;;;;;;15.97;2.90;;;;;;;;;;5111898;28;20302;-75
2021/12/10 01:34:00;;;;;;;13.23;2.50;;;;;;;;;;5111947;28;20280;-75
2021/12/10 01:36:27;;;;;;;11.33;2.57;;;;;;;;;;5113804;27;20288;-74
2021/12/10 01:38:55;;;;;;;13.03;2.93;;;;;;;;;;5111320;28;20709;-74
2021/12/10 01:41:25;;;;;;;14.93;2.63;;;;;;;;;;5111934;28;20221;-75
2021/12/10 01:43:53;;;;;;;14.53;2.47;;;;;;;;;;5111152;28;20197;-75
2021/12/10 01:46:26;;;;;;;9.10;2.50;;;;;;;;;;5110992;28;20248;-74
2021/12/10 01:48:54;;;;;;;14.67;2.40;;;;;;;;;;5110445;28;20197;-75
2021/12/10 01:51:23;;;;;;;15.53;3.00;;;;;;;;;;5111915;28;20284;-75
2021/12/10 01:53:53;;;;;;;15.13;2.57;;;;;;;;;;5115005;27;20285;-74
2021/12/10 01:56:22;;;;;;;13.40;2.37;;;;;;;;;;5105422;28;20237;-74
2021/12/10 01:58:50;;;;;;;11.70;2.40;;;;;;;;;;5110602;28;20230;-74
2021/12/10 02:01:19;;;;;;;10.97;2.17;;;;;;;;;;5111269;28;20224;-74
2021/12/10 02:03:46;;;;;;;14.40;2.90;;;;;;;;;;5111002;28;20245;-74
2021/12/10 02:06:14;;;;;;;15.70;2.70;;;;;;;;;;5110368;28;20249;-74
2021/12/10 02:08:43;;;;;;;9.97;1.93;;;;;;;;;;5115538;27;20237;-74
2021/12/10 02:11:10;;;;;;;14.23;2.00;;;;;;;;;;5117338;27;20361;-75
2021/12/10 02:13:37;;;;;;;10.47;2.37;;;;;;;;;;5110928;27;20648;-74
2021/12/10 02:16:05;;;;;;;20.37;2.83;;;;;;;;;;5127930;27;20275;-75
2021/12/10 02:18:32;;;;;;;10.27;2.00;;;;;;;;;;5121755;27;20301;-75
2021/12/10 02:21:15;;;;;;;7.87;1.20;;;;;;;;;;5123981;28;20248;-75
2021/12/10 02:23:45;;;;;;;10.50;1.60;;;;;;;;;;5105301;28;20198;-74
2021/12/10 02:26:14;;;;;;;12.07;1.60;;;;;;;;;;5111387;28;20281;-74
2021/12/10 02:28:42;;;;;;;10.43;1.50;;;;;;;;;;5111373;28;20356;-74
2021/12/10 02:31:11;;;;;;;11.87;1.73;;;;;;;;;;5111201;28;20284;-74
2021/12/10 02:33:39;;;;;;;10.00;1.83;;;;;;;;;;5111190;28;20194;-74
2021/12/10 02:36:10;;;;;;;4.60;1.20;;;;;;;;;;5111202;28;20222;-74
2021/12/10 02:38:37;;;;;;;9.67;1.57;;;;;;;;;;5111567;28;20237;-75
2021/12/10 02:41:06;;;;;;;7.60;1.63;;;;;;;;;;5110526;28;20300;-74
2021/12/10 02:43:33;;;;;;;11.17;1.67;;;;;;;;;;5110873;28;20252;-74
2021/12/10 02:46:00;;;;;;;7.20;1.60;;;;;;;;;;5111338;28;20278;-74
2021/12/10 02:48:27;;;;;;;6.70;1.10;;;;;;;;;;5111988;28;20235;-75
2021/12/10 02:50:56;;;;;;;6.07;1.17;;;;;;;;;;5111770;28;20281;-74
2021/12/10 02:53:27;;;;;;;9.87;1.50;;;;;;;;;;5111558;28;20205;-74
2021/12/10 02:55:55;;;;;;;8.07;1.10;;;;;;;;;;5111522;28;20201;-74
2021/12/10 02:58:23;;;;;;;7.70;1.30;;;;;;;;;;5110492;28;20280;-74
2021/12/10 03:00:52;;;;;;;8.67;1.53;;;;;;;;;;5110007;28;20308;-74
2021/12/10 03:03:19;;;;;;;9.70;2.07;;;;;;;;;;5111013;28;20281;-74
2021/12/10 03:05:47;;;;;;;7.30;2.00;;;;;;;;;;5113695;28;20285;-75
2021/12/10 03:08:15;;;;;;;6.17;1.80;;;;;;;;;;5102606;28;20222;-75
2021/12/10 03:10:42;;;;;;;5.93;1.97;;;;;;;;;;5103871;28;21071;-74
2021/12/10 03:13:10;;;;;;;10.70;1.87;;;;;;;;;;5104437;27;20208;-74
2021/12/10 03:15:40;;;;;;;5.67;1.30;;;;;;;;;;5117766;27;20253;-74
2021/12/10 03:18:08;;;;;;;7.17;1.60;;;;;;;;;;5113382;28;20236;-75
2021/12/10 03:20:36;;;;;;;9.13;1.90;;;;;;;;;;5114891;28;20304;-74
2021/12/10 03:23:04;;;;;;;7.40;1.67;;;;;;;;;;5114175;28;20203;-74
2021/12/10 03:25:32;;;;;;;11.83;1.90;;;;;;;;;;5114446;28;20233;-75
2021/12/10 03:27:59;;;;;;;9.23;1.50;;;;;;;;;;5113189;28;20289;-74
2021/12/10 03:30:28;;;;;;;10.37;2.13;;;;;;;;;;5113424;27;20697;-74
2021/12/10 03:32:57;;;;;;;8.23;1.87;;;;;;;;;;5114006;27;20235;-75
2021/12/10 03:35:28;;;;;;;8.93;2.00;;;;;;;;;;5114104;28;20197;-74
2021/12/10 03:37:55;;;;;;;10.10;2.13;;;;;;;;;;5114200;28;20240;-74
2021/12/10 03:40:23;;;;;;;13.60;2.43;;;;;;;;;;5113920;28;20304;-74
2021/12/10 03:42:58;;;;;;;12.80;2.30;;;;;;;;;;5113281;27;20312;-75
2021/12/10 03:45:26;;;;;;;11.47;1.67;;;;;;;;;;5115239;27;20209;-75
2021/12/10 03:47:53;;;;;;;14.47;2.30;;;;;;;;;;5119681;27;20284;-74
2021/12/10 03:50:24;;;;;;;16.20;2.30;;;;;;;;;;5113558;27;20208;-74
2021/12/10 03:52:52;;;;;;;9.73;1.83;;;;;;;;;;5114294;28;20725;-74
2021/12/10 03:55:21;;;;;;;12.90;2.50;;;;;;;;;;5112921;27;20189;-74
2021/12/10 03:57:49;;;;;;;10.53;1.70;;;;;;;;;;5118758;27;20231;-75
2021/12/10 04:00:17;;;;;;;15.30;2.47;;;;;;;;;;5119622;27;20316;-74
2021/12/10 04:02:44;;;;;;;9.63;1.83;;;;;;;;;;5119139;27;20293;-74
2021/12/10 04:05:12;;;;;;;14.93;2.23;;;;;;;;;;5121270;27;20232;-75
2021/12/10 04:07:40;;;;;;;14.33;2.40;;;;;;;;;;5111998;27;20740;-74
2021/12/10 04:10:09;;;;;;;14.43;2.20;;;;;;;;;;5112919;28;20225;-74
2021/12/10 04:12:36;;;;;;;14.40;2.37;;;;;;;;;;5111321;28;20281;-74
2021/12/10 04:15:04;;;;;;;13.47;2.37;;;;;;;;;;5112322;27;20213;-74
2021/12/10 04:17:31;;;;;;;11.70;2.10;;;;;;;;;;5113435;28;20325;-74
2021/12/10 04:19:58;;;;;;;10.37;2.00;;;;;;;;;;5112921;27;20288;-74
2021/12/10 04:22:32;;;;;;;10.10;1.63;;;;;;;;;;5113104;28;20225;-74
2021/12/10 04:25:00;;;;;;;7.97;1.97;;;;;;;;;;5112585;28;20262;-74
2021/12/10 04:27:28;;;;;;;10.20;1.57;;;;;;;;;;5119415;27;20201;-74
2021/12/10 04:29:58;;;;;;;6.00;1.33;;;;;;;;;;5115632;27;20789;-74
2021/12/10 04:32:26;;;;;;;11.30;2.10;;;;;;;;;;5113034;28;20247;-74
2021/12/10 04:34:54;;;;;;;7.50;1.63;;;;;;;;;;5112705;27;20288;-74
2021/12/10 04:37:21;;;;;;;10.33;2.07;;;;;;;;;;5114453;27;20205;-74
2021/12/10 04:39:49;;;;;;;9.33;1.53;;;;;;;;;;5112733;28;20289;-74
2021/12/10 04:42:19;;;;;;;8.13;1.50;;;;;;;;;;5112814;27;20230;-74
2021/12/10 04:44:47;;;;;;;7.37;1.30;;;;;;;;;;5112539;27;20284;-75
2021/12/10 04:47:15;;;;;;;8.73;1.40;;;;;;;;;;5112545;28;20281;-74
2021/12/10 04:49:42;;;;;;;6.17;1.00;;;;;;;;;;5113088;28;20637;-75
2021/12/10 04:52:09;;;;;;;7.13;1.30;;;;;;;;;;5112720;28;20291;-74
2021/12/10 04:54:37;;;;;;;7.60;1.50;;;;;;;;;;5112606;28;20232;-74
2021/12/10 04:57:04;;;;;;;5.77;1.60;;;;;;;;;;5114682;27;20732;-74
2021/12/10 04:59:34;;;;;;;5.60;1.13;;;;;;;;;;5111805;28;20281;-75
2021/12/10 05:02:02;;;;;;;6.43;1.40;;;;;;;;;;5112615;28;20340;-74
2021/12/10 05:04:30;;;;;;;11.37;1.00;;;;;;;;;;5112838;28;20278;-74
2021/12/10 05:06:59;;;;;;;8.33;1.80;;;;;;;;;;5111426;27;20193;-74
2021/12/10 05:09:26;;;;;;;7.47;1.43;;;;;;;;;;5112214;28;20274;-75
2021/12/10 05:11:56;;;;;;;5.50;1.13;;;;;;;;;;5112464;28;20251;-74
2021/12/10 05:14:24;;;;;;;8.70;1.10;;;;;;;;;;5112060;28;20221;-75
2021/12/10 05:16:54;;;;;;;7.17;1.67;;;;;;;;;;5111963;28;20230;-74
2021/12/10 05:19:23;;;;;;;5.50;1.10;;;;;;;;;;5112132;28;20669;-75
2021/12/10 05:21:52;;;;;;;7.03;1.20;;;;;;;;;;5110607;28;20222;-74
2021/12/10 05:24:19;;;;;;;7.27;1.13;;;;;;;;;;5104491;28;20198;-75
2021/12/10 05:26:47;;;;;;;5.80;1.10;;;;;;;;;;5104389;27;20288;-74
2021/12/10 05:29:15;;;;;;;4.37;1.00;;;;;;;;;;5108358;27;20292;-74
2021/12/10 05:31:44;;;;;;;7.23;1.10;;;;;;;;;;5111641;28;20188;-75
2021/12/10 05:34:13;;;;;;;4.80;1.27;;;;;;;;;;5118692;27;20196;-74
2021/12/10 05:36:40;;;;;;;7.93;1.50;;;;;;;;;;5112001;28;20300;-74
2021/12/10 05:39:08;;;;;;;9.77;1.23;;;;;;;;;;5112526;28;20232;-74
2021/12/10 05:41:35;;;;;;;5.03;0.90;;;;;;;;;;5115812;27;20300;-74
2021/12/10 05:44:04;;;;;;;6.73;1.03;;;;;;;;;;5114780;27;20288;-74
2021/12/10 05:46:32;;;;;;;4.70;1.20;;;;;;;;;;5112981;27;20208;-74
2021/12/10 05:48:59;;;;;;;4.57;1.20;;;;;;;;;;5111278;28;20656;-74
2021/12/10 05:51:27;;;;;;;5.83;1.40;;;;;;;;;;5112110;28;20285;-74
2021/12/10 05:53:55;;;;;;;4.83;1.10;;;;;;;;;;5111337;28;20280;-75
2021/12/10 05:56:22;;;;;;;6.53;1.10;;;;;;;;;;5111954;28;20233;-74
2021/12/10 05:58:49;;;;;;;5.67;1.10;;;;;;;;;;5117945;27;20235;-74
2021/12/10 06:01:18;;;;;;;7.43;1.20;;;;;;;;;;5128226;27;20217;-74
2021/12/10 06:03:51;;;;;;;7.27;1.23;;;;;;;;;;5113860;28;20280;-76
2021/12/10 06:06:21;;;;;;;11.03;1.33;;;;;;;;;;5095701;28;20204;-76
2021/12/10 06:08:50;;;;;;;9.10;1.20;;;;;;;;;;5110814;28;20720;-76
2021/12/10 06:11:18;;;;;;;5.87;1.40;;;;;;;;;;5103526;28;20198;-75
2021/12/10 06:13:46;;;;;;;4.90;0.97;;;;;;;;;;5112028;28;20205;-76
2021/12/10 06:16:13;;;;;;;9.43;1.47;;;;;;;;;;5112797;28;20237;-76
2021/12/10 06:18:40;;;;;;;7.20;1.50;;;;;;;;;;5111915;28;20291;-76
2021/12/10 06:21:07;;;;;;;6.73;1.40;;;;;;;;;;5111408;28;20307;-76
2021/12/10 06:23:35;;;;;;;7.20;1.50;;;;;;;;;;5111994;28;20204;-76
2021/12/10 06:26:04;;;;;;;9.00;1.50;;;;;;;;;;5111487;28;20231;-76
2021/12/10 06:28:31;;;;;;;9.87;1.57;;;;;;;;;;5112269;28;20212;-75
2021/12/10 06:30:59;;;;;;;9.63;1.67;;;;;;;;;;5111369;28;20197;-76
2021/12/10 06:33:28;;;;;;;7.83;1.40;;;;;;;;;;5121556;27;20681;-76
2021/12/10 06:35:56;;;;;;;9.50;1.33;;;;;;;;;;5109873;28;20202;-76
2021/12/10 06:38:25;;;;;;;9.53;1.37;;;;;;;;;;5109620;28;20287;-76
2021/12/10 06:40:53;;;;;;;7.90;1.70;;;;;;;;;;5110618;28;20280;-76
2021/12/10 06:43:22;;;;;;;5.53;1.10;;;;;;;;;;5110344;28;20230;-76
2021/12/10 06:45:51;;;;;;;6.23;1.20;;;;;;;;;;5114335;28;20291;-76
2021/12/10 06:48:19;;;;;;;8.03;1.53;;;;;;;;;;5113958;28;20644;-76
2021/12/10 06:50:49;;;;;;;7.83;1.10;;;;;;;;;;5113334;28;20294;-76
2021/12/10 06:53:16;;;;;;;7.80;1.47;;;;;;;;;;5114574;28;20283;-76
2021/12/10 06:55:44;;;;;;;8.23;1.40;;;;;;;;;;5113791;28;20283;-76
2021/12/10 06:58:11;;;;;;;10.73;1.70;;;;;;;;;;5113997;28;20276;-76
2021/12/10 07:00:42;;;;;;;7.70;1.60;;;;;;;;;;5110884;28;20297;-76
2021/12/10 07:03:11;;;;;;;7.43;1.20;;;;;;;;;;5110334;27;20328;-76
2021/12/10 07:05:38;;;;;;;6.13;1.50;;;;;;;;;;5107466;28;20294;-76
2021/12/10 07:08:05;;;;;;;5.93;1.33;;;;;;;;;;5110414;28;20289;-76
2021/12/10 07:10:33;;;;;;;8.00;1.53;;;;;;;;;;5113432;28;20655;-76
2021/12/10 07:13:03;;;;;;;10.47;1.53;;;;;;;;;;5113774;28;20290;-77
2021/12/10 07:15:30;;;;;;;8.27;1.80;;;;;;;;;;5113529;28;20223;-76
2021/12/10 07:17:58;;;;;;;12.47;2.00;;;;;;;;;;5113491;27;20291;-76
2021/12/10 07:20:26;;;;;;;10.30;1.57;;;;;;;;;;5108223;28;20903;-76
2021/12/10 07:22:53;;;;;;;6.23;1.20;;;;;;;;;;5112959;28;20213;-76
2021/12/10 07:25:21;;;;;;;8.37;1.40;;;;;;;;;;5113715;28;20727;-76
2021/12/10 07:27:48;;;;;;;7.50;1.23;;;;;;;;;;5112792;27;20292;-75
2021/12/10 07:30:16;;;;;;;6.63;1.67;;;;;;;;;;5115462;27;20295;-76
2021/12/10 07:32:43;;;;;;;7.23;1.43;;;;;;;;;;5112269;28;20287;-76
2021/12/10 07:35:12;;;;;;;7.10;1.40;;;;;;;;;;5113491;27;20200;-76
2021/12/10 07:37:39;;;;;;;9.07;1.40;;;;;;;;;;5113215;28;20292;-75
2021/12/10 07:40:08;;;;;;;8.30;1.73;;;;;;;;;;5108133;28;20361;-76
2021/12/10 07:42:35;;;;;;;9.00;1.73;;;;;;;;;;5114122;27;20252;-76
2021/12/10 07:45:03;;;;;;;6.03;1.57;;;;;;;;;;5113824;27;20235;-76
2021/12/10 07:47:34;;;;;;;8.00;1.57;;;;;;;;;;5114474;27;20311;-76
2021/12/10 07:50:02;;;;;;;10.20;1.80;;;;;;;;;;5113242;28;20202;-76
2021/12/10 07:52:34;;;;;;;9.43;1.87;;;;;;;;;;5116166;27;20215;-75
2021/12/10 07:55:02;;;;;;;4.50;1.37;;;;;;;;;;5114732;27;20571;-76
2021/12/10 07:57:29;;;;;;;7.43;1.50;;;;;;;;;;5110278;27;20288;-75
2021/12/10 07:59:56;;;;;;;9.67;1.67;;;;;;;;;;5113528;28;20195;-75
2021/12/10 08:02:24;;;;;;;6.13;1.23;;;;;;;;;;5112605;28;20402;-76
2021/12/10 08:04:51;;;;;;;3.33;1.10;;;;;;;;;;5117421;27;20216;-76
2021/12/10 08:07:18;;;;;;;5.23;1.37;;;;;;;;;;5113359;27;20217;-75
2021/12/10 08:09:47;;;;;;;5.60;1.10;;;;;;;;;;5113481;27;20201;-76
2021/12/10 08:12:14;;;;;;;6.97;1.87;;;;;;;;;;5115370;27;20293;-76
2021/12/10 08:14:42;;;;;;;4.87;1.60;;;;;;;;;;5113249;28;20308;-76
2021/12/10 08:17:10;;;;;;;6.13;1.50;;;;;;;;;;5113091;28;20229;-76
2021/12/10 08:19:37;;;;;;;6.93;1.20;;;;;;;;;;5112491;28;20204;-76
2021/12/10 08:22:05;;;;;;;4.60;1.10;;;;;;;;;;5111278;28;20736;-76
2021/12/10 08:24:32;;;;;;;6.17;1.40;;;;;;;;;;5107174;28;20205;-76
2021/12/10 08:27:01;;;;;;;6.27;1.30;;;;;;;;;;5113480;28;20211;-76
2021/12/10 08:29:28;;;;;;;8.03;1.30;;;;;;;;;;5111967;28;20296;-76
2021/12/10 08:31:55;;;;;;;9.43;2.40;;;;;;;;;;5113435;28;20276;-76
2021/12/10 08:34:23;;;;;;;5.20;1.70;;;;;;;;;;5112389;28;20192;-76
2021/12/10 08:36:50;;;;;;;6.03;1.37;;;;;;;;;;5128780;27;20299;-76
2021/12/10 08:39:18;;;;;;;10.00;1.60;;;;;;;;;;5114721;27;20293;-76
2021/12/10 08:41:45;;;;;;;9.37;1.40;;;;;;;;;;5112066;28;20704;-75
2021/12/10 08:44:14;;;;;;;6.53;1.40;;;;;;;;;;5112136;28;20623;-76
2021/12/10 08:46:44;;;;;;;8.00;1.27;;;;;;;;;;5112354;28;20291;-76
2021/12/10 08:49:13;;;;;;;8.40;1.33;;;;;;;;;;5112555;27;20199;-77
2021/12/10 08:51:41;;;;;;;7.93;1.30;;;;;;;;;;5112195;27;20203;-76
2021/12/10 08:54:10;;;;;;;8.10;1.30;;;;;;;;;;5112314;28;20292;-76
2021/12/10 08:56:37;;;;;;;6.17;1.03;;;;;;;;;;5112404;28;20204;-76
2021/12/10 08:59:05;;;;;;;9.03;1.77;;;;;;;;;;5113383;27;20302;-75
2021/12/10 09:01:35;;;;;;;8.13;1.30;;;;;;;;;;5112354;28;20235;-75
2021/12/10 09:04:04;;;;;;;4.97;1.30;;;;;;;;;;5111633;27;20204;-76
2021/12/10 09:06:33;;;;;;;7.97;1.27;;;;;;;;;;5121485;27;20242;-76
2021/12/10 09:09:01;;;;;;;5.97;1.50;;;;;;;;;;5111091;28;20292;-75
2021/12/10 09:11:29;;;;;;;8.03;1.57;;;;;;;;;;5112517;28;20211;-76
2021/12/10 09:13:56;;;;;;;6.30;1.90;;;;;;;;;;5111683;28;20318;-76
2021/12/10 09:16:27;;;;;;;8.73;2.50;;;;;;;;;;5112204;28;20737;-76
2021/12/10 09:18:57;;;;;;;6.67;1.47;;;;;;;;;;5112146;28;20567;-76
2021/12/10 09:21:25;;;;;;;8.60;2.57;;;;;;;;;;5106570;27;20294;-76
2021/12/10 09:23:56;;;;;;;8.70;2.73;;;;;;;;;;5113510;27;20247;-76
2021/12/10 09:26:27;;;;;;;8.93;2.40;;;;;;;;;;5112935;27;20200;-76
2021/12/10 09:28:55;;;;;;;6.73;2.57;;;;;;;;;;5113685;27;20204;-75
2021/12/10 09:31:24;;;;;;;7.23;1.70;;;;;;;;;;5114069;27;20790;-76
2021/12/10 09:33:52;;;;;;;5.97;1.43;;;;;;;;;;5120393;27;20297;-76
2021/12/10 09:36:20;;;;;;;5.70;1.90;;;;;;;;;;5119460;27;20208;-76
2021/12/10 09:38:48;;;;;;;4.77;1.30;;;;;;;;;;5113929;27;20294;-76
2021/12/10 09:41:15;;;;;;;5.93;1.23;;;;;;;;;;5099775;28;20741;-76
2021/12/10 09:43:42;;;;;;;5.37;1.20;;;;;;;;;;5111824;28;20213;-76
2021/12/10 09:46:10;;;;;;;4.33;1.20;;;;;;;;;;5111596;28;20282;-76
2021/12/10 09:48:38;;;;;;;5.67;1.30;;;;;;;;;;5111454;28;20285;-76
2021/12/10 09:51:07;;;;;;;7.67;1.43;;;;;;;;;;5111861;28;20284;-76
2021/12/10 09:53:36;;;;;;;3.57;1.23;;;;;;;;;;5112339;28;20300;-75
2021/12/10 09:56:06;;;;;;;6.23;1.30;;;;;;;;;;5112127;28;20293;-76
2021/12/10 09:58:33;;;;;;;5.43;1.37;;;;;;;;;;5113507;27;20233;-75
2021/12/10 10:01:02;;;;;;;5.70;1.13;;;;;;;;;;5116869;27;20233;-76
2021/12/10 10:03:31;;;;;;;6.33;1.53;;;;;;;;;;5110848;27;20308;-76
2021/12/10 10:05:59;;;;;;;4.63;1.40;;;;;;;;;;5111752;28;20197;-76
2021/12/10 10:08:27;;;;;;;4.43;1.17;;;;;;;;;;5109987;28;20252;-75
2021/12/10 10:10:56;;;;;;;3.70;1.10;;;;;;;;;;5110875;28;20244;-75
2021/12/10 10:13:25;;;;;;;5.30;1.20;;;;;;;;;;5110395;28;20236;-75
2021/12/10 10:15:56;;;;;;;4.33;1.40;;;;;;;;;;5109107;28;20321;-76
2021/12/10 10:18:23;;;;;;;5.03;1.33;;;;;;;;;;5104415;28;20221;-76
2021/12/10 10:20:52;;;;;;;5.37;1.00;;;;;;;;;;5110707;28;20197;-75
2021/12/10 10:23:19;;;;;;;4.27;0.87;;;;;;;;;;5108739;28;20248;-75
2021/12/10 10:25:50;;;;;;;4.97;1.20;;;;;;;;;;5110388;28;20288;-76
2021/12/10 10:28:18;;;;;;;5.43;1.07;;;;;;;;;;5110282;28;20225;-76
2021/12/10 10:30:52;;;;;;;5.33;1.10;;;;;;;;;;5110277;28;20323;-76
2021/12/10 10:33:19;;;;;;;7.80;1.23;;;;;;;;;;5110212;28;20221;-76
2021/12/10 10:35:49;;;;;;;7.23;1.37;;;;;;;;;;5109599;28;20287;-75
2021/12/10 10:38:16;;;;;;;4.70;0.90;;;;;;;;;;5111077;28;20752;-76
2021/12/10 10:40:47;;;;;;;6.60;1.10;;;;;;;;;;5110618;28;20198;-76
2021/12/10 10:43:14;;;;;;;6.33;1.00;;;;;;;;;;5110621;28;20309;-76
2021/12/10 10:45:44;;;;;;;6.47;0.90;;;;;;;;;;5105314;28;20296;-77
2021/12/10 10:48:12;;;;;;;5.23;1.20;;;;;;;;;;5105464;28;20279;-75
2021/12/10 10:50:40;;;;;;;7.83;1.00;;;;;;;;;;5110554;28;20206;-75
2021/12/10 10:53:09;;;;;;;9.03;1.73;;;;;;;;;;5109179;28;20295;-75
2021/12/10 10:55:38;;;;;;;8.07;1.57;;;;;;;;;;5107243;28;20292;-75
2021/12/10 10:58:07;;;;;;;8.37;1.50;;;;;;;;;;5112144;28;20290;-76
2021/12/10 11:00:43;;;;;;;6.50;1.70;;;;;;;;;;5118081;28;20548;-75
2021/12/10 11:03:14;;;;;;;10.00;1.70;;;;;;;;;;5108318;28;20235;-75
2021/12/10 11:05:46;;;;;;;10.37;1.53;;;;;;;;;;5110377;28;20294;-76
2021/12/10 11:08:13;;;;;;;8.03;1.60;;;;;;;;;;5110300;28;20207;-76
2021/12/10 11:10:42;;;;;;;6.97;1.23;;;;;;;;;;5107953;28;20293;-74
2021/12/10 11:13:11;;;;;;;8.97;1.27;;;;;;;;;;5107565;28;20285;-76
2021/12/10 11:15:39;;;;;;;4.10;1.17;;;;;;;;;;5109682;28;20697;-76
2021/12/10 11:18:06;;;;;;;7.53;1.23;;;;;;;;;;5107753;28;20626;-76
2021/12/10 11:20:36;;;;;;;4.53;1.00;;;;;;;;;;5110652;28;20676;-76
2021/12/10 11:23:05;;;;;;;5.50;1.17;;;;;;;;;;5110118;28;20994;-76
2021/12/10 11:25:39;;;;;;;5.43;0.93;;;;;;;;;;5110825;28;20284;-76
2021/12/10 11:28:08;;;;;;;4.73;1.00;;;;;;;;;;5110133;28;20229;-76
2021/12/10 11:30:35;;;;;;;5.17;1.00;;;;;;;;;;5109887;28;20284;-76
2021/12/10 11:33:10;;;;;;;5.33;0.80;;;;;;;;;;5110600;28;20570;-76
2021/12/10 11:35:39;;;;;;;9.33;1.20;;;;;;;;;;5112179;28;20418;-76
2021/12/10 11:38:08;;;;;;;4.10;1.00;;;;;;;;;;5110216;27;20284;-76
2021/12/10 11:40:49;;;;;;;4.97;0.73;;;;;;;;;;5113533;28;20252;-76
2021/12/10 11:43:31;;;;;;;4.13;0.70;;;;;;;;;;5112705;28;20228;-76
2021/12/10 11:46:26;;;;;;;3.77;0.73;;;;;;;;;;5113649;28;20276;-76
2021/12/10 11:48:54;;;;;;;4.90;0.87;;;;;;;;;;5113426;28;20190;-76
2021/12/10 11:51:23;;;;;;;2.90;0.67;;;;;;;;;;5107319;27;20956;-76
2021/12/10 11:53:52;;;;;;;4.53;1.10;;;;;;;;;;5114040;27;20285;-76
2021/12/10 11:56:20;;;;;;;5.30;0.90;;;;;;;;;;5113385;28;20210;-76
2021/12/10 11:59:07;;;;;;;4.37;0.90;;;;;;;;;;5112946;28;20285;-76
2021/12/10 12:01:35;;;;;;;5.13;1.10;;;;;;;;;;5109661;28;20208;-75
2021/12/10 12:04:15;;;;;;;3.87;0.53;;;;;;;;;;5106909;27;20316;-76
2021/12/10 12:06:44;;;;;;;8.57;1.20;;;;;;;;;;5108953;27;20301;-76
2021/12/10 12:09:29;;;;;;;3.13;0.80;;;;;;;;;;5109382;28;20204;-76
2021/12/10 12:12:08;;;;;;;5.03;0.77;;;;;;;;;;5114468;27;20282;-76
2021/12/10 12:14:35;;;;;;;6.80;1.27;;;;;;;;;;5113206;27;20293;-76
2021/12/10 12:17:04;;;;;;;8.57;1.40;;;;;;;;;;5123431;27;20269;-76
2021/12/10 12:19:32;;;;;;;5.03;1.10;;;;;;;;;;5117891;27;20205;-76
2021/12/10 12:25:09;;;;;;;5.87;1.30;;;;;;;;;;5112781;27;20230;-76
2021/12/10 12:27:36;;;;;;;4.73;1.00;;;;;;;;;;5112760;27;20211;-76
2021/12/10 12:30:06;;;;;;;9.90;1.37;;;;;;;;;;5123762;27;20296;-76
2021/12/10 12:32:37;;;;;;;8.47;1.57;;;;;;;;;;5113085;28;20645;-76
2021/12/10 12:35:13;;;;;;;5.60;1.60;;;;;;;;;;5111846;27;20211;-76
2021/12/10 12:37:41;;;;;;;8.33;1.50;;;;;;;;;;5115735;27;20289;-76
2021/12/10 12:40:09;;;;;;;8.00;1.80;;;;;;;;;;5111948;28;20266;-76
2021/12/10 12:42:37;;;;;;;6.17;1.90;;;;;;;;;;5112615;27;20198;-76
2021/12/10 12:45:07;;;;;;;10.53;1.60;;;;;;;;;;5109541;27;20309;-76
2021/12/10 12:47:36;;;;;;;8.00;2.07;;;;;;;;;;5112562;28;20292;-76
2021/12/10 12:50:06;;;;;;;7.20;2.07;;;;;;;;;;5112231;28;20295;-76
2021/12/10 12:52:39;;;;;;;5.97;1.47;;;;;;;;;;5112648;27;20693;-76
2021/12/10 12:55:11;;;;;;;8.70;1.90;;;;;;;;;;5113620;27;20292;-76
2021/12/10 12:57:39;;;;;;;10.00;2.03;;;;;;;;;;5112436;27;20288;-75
2021/12/10 13:00:07;;;;;;;9.10;2.43;;;;;;;;;;5112054;27;20288;-76
2021/12/10 13:02:34;;;;;;;10.67;1.90;;;;;;;;;;5104601;28;20273;-75
2021/12/10 13:05:04;;;;;;;6.77;1.80;;;;;;;;;;5111653;28;20235;-75
2021/12/10 13:07:32;;;;;;;5.93;1.93;;;;;;;;;;5114290;27;20202;-75
2021/12/10 13:10:03;;;;;;;7.27;1.60;;;;;;;;;;5113767;27;20297;-76
2021/12/10 13:12:41;;;;;;;9.03;1.90;;;;;;;;;;5110012;27;20257;-75
2021/12/10 13:15:10;;;;;;;5.40;1.60;;;;;;;;;;5110827;28;20304;-75
2021/12/10 13:17:38;;;;;;;7.80;2.90;;;;;;;;;;5109901;28;20659;-75
2021/12/10 13:20:09;;;;;;;19.57;6.27;;;;;;;;;;5113025;27;20280;-75
2021/12/10 13:22:36;;;;;;;5.97;1.43;;;;;;;;;;5112466;27;20202;-75
2021/12/10 13:25:06;;;;;;;5.93;1.50;;;;;;;;;;5111349;28;20217;-76
2021/12/10 13:27:40;;;;;;;7.33;2.07;;;;;;;;;;5111907;28;20289;-75
2021/12/10 13:30:08;;;;;;;7.27;1.60;;;;;;;;;;5106768;28;20201;-75
2021/12/10 13:32:35;;;;;;;10.67;1.33;;;;;;;;;;5110554;27;20202;-76
2021/12/10 13:35:02;;;;;;;7.53;1.50;;;;;;;;;;5111321;28;20278;-75
2021/12/10 13:37:30;;;;;;;7.73;1.17;;;;;;;;;;5111251;28;20628;-76
2021/12/10 13:40:00;;;;;;;8.10;1.57;;;;;;;;;;5110900;28;20247;-76
2021/12/10 13:42:27;;;;;;;11.83;1.40;;;;;;;;;;5112407;27;20246;-75
2021/12/10 13:44:56;;;;;;;9.97;1.97;;;;;;;;;;5109429;27;20308;-75
2021/12/10 13:47:26;;;;;;;10.07;1.70;;;;;;;;;;5108660;28;20297;-75
2021/12/10 13:49:55;;;;;;;9.37;1.77;;;;;;;;;;5103768;27;20203;-75
2021/12/10 13:52:35;;;;;;;9.20;1.70;;;;;;;;;;5111418;28;20284;-75
2021/12/10 13:55:03;;;;;;;7.40;1.30;;;;;;;;;;5110864;28;20726;-75
2021/12/10 13:57:31;;;;;;;5.63;1.37;;;;;;;;;;5111162;28;20284;-76
2021/12/10 14:00:01;;;;;;;5.70;1.30;;;;;;;;;;5121706;27;20959;-75
2021/12/10 14:02:35;;;;;;;6.10;1.30;;;;;;;;;;5112978;27;20284;-75
2021/12/10 14:05:16;;;;;;;7.27;1.33;;;;;;;;;;5125632;27;20320;-76
2021/12/10 14:07:50;;;;;;;6.17;1.77;;;;;;;;;;5119749;27;20656;-76
2021/12/10 14:10:23;;;;;;;9.70;1.77;;;;;;;;;;5116152;27;20225;-75
2021/12/10 14:12:50;;;;;;;5.93;1.27;;;;;;;;;;5112053;27;20283;-75
2021/12/10 14:15:21;;;;;;;6.83;1.60;;;;;;;;;;5123579;27;20247;-76
2021/12/10 14:17:54;;;;;;;10.83;1.80;;;;;;;;;;5114377;27;20373;-75
2021/12/10 14:20:23;;;;;;;10.20;1.30;;;;;;;;;;5112374;28;20207;-75
2021/12/10 14:22:51;;;;;;;7.27;1.40;;;;;;;;;;5112995;28;20636;-75
2021/12/10 14:25:21;;;;;;;10.23;1.57;;;;;;;;;;5113552;28;20303;-75
2021/12/10 14:27:53;;;;;;;8.50;2.00;;;;;;;;;;5127677;28;20284;-75
2021/12/10 14:30:23;;;;;;;8.00;1.97;;;;;;;;;;5115166;28;20276;-75
2021/12/10 14:33:02;;;;;;;5.70;1.40;;;;;;;;;;5121786;27;20203;-75
2021/12/10 14:35:29;;;;;;;5.73;1.27;;;;;;;;;;5122253;27;20284;-75
2021/12/10 14:38:00;;;;;;;5.10;1.13;;;;;;;;;;5110436;28;20207;-75
2021/12/10 14:40:30;;;;;;;6.40;1.37;;;;;;;;;;5116551;28;20243;-75
2021/12/10 14:43:14;;;;;;;9.60;1.50;;;;;;;;;;5121451;27;20280;-75
2021/12/10 14:46:11;;;;;;;7.47;1.40;;;;;;;;;;5111501;28;20213;-74
2021/12/10 14:48:41;;;;;;;6.60;1.63;;;;;;;;;;5111290;28;20292;-76
2021/12/10 14:51:10;;;;;;;8.90;1.90;;;;;;;;;;5111032;28;20384;-75
2021/12/10 14:53:39;;;;;;;6.47;1.60;;;;;;;;;;5113197;28;20292;-75
2021/12/10 14:56:16;;;;;;;7.43;2.00;;;;;;;;;;5115522;28;20281;-75
2021/12/10 14:59:02;;;;;;;9.63;1.97;;;;;;;;;;5113709;28;20316;-76
2021/12/10 15:01:30;;;;;;;10.13;1.80;;;;;;;;;;5115908;28;20290;-75